Pagrindinis puslapis
METAR-TAF:

METAR-TAF

Oro uostai :

Atėnai, Graikija

platuma: 37-56N, ilguma: 023-56E, Aukštis: 94 m

Dabartinis oras

Ataskaita buvo paskelbta 32 minutes, ne 04:20 UTC
Vėjas 10 kt iš Šiaurės Rytų
Temperatūra 8°C
Drėgmė 76%
Slėgis 1022 hPa
Matomumas 10 km arba daugiau
Su prošvaistėmis ne aukštis 2000 ft

METAR: LGAV 220420Z 05010KT 9999 BKN020 08/04 Q1022 NOSIG

Laikas: 06:52 (04:52 UTC)

Prognozė

Ataskaita buvo paskelbta 5 valandos ir 52 minutes, ne 23:00 UTC
Prognozė galioja nuo 22 metu 00 UTC su 22 metu 24 UTC
Vėjas 10 kt iš Šiaurės su gūsio iki 20 kt
Matomumas 10 km arba daugiau
Išsisklaidę debesys ne aukštis 2500 ft
Tapsmas
nuo 22 metu 10 UTC su 22 metu 12 UTC
Vėjas 25 kt iš Šiaurės su gūsio iki 35 kt
Tikimybė 40% :
Laikinai
nuo 22 metu 06 UTC su 22 metu 18 UTC
Matomumas: 5000 m
Išsisklaidę debesys ne aukštis 1500 ft
Su prošvaistėmis ne aukštis 2500 ft
Su prošvaistėmis ne aukštis 7000 ft
lietus

TAF: LGAV 212300Z 2200/2224 36010G20KT 9999 SCT025 BECMG 2210/2212 01025G35KT PROB40 TEMPO 2206/2218 5000 RA SCT015 BKN025 BKN070

Orai ataskaitas ir orų prognozės (METAR, TAF).

turimą stotys yra geltonos ir raudonos taškus žemėlapyje.

Perkelti pele per norėdami pamatyti stoties vardą.

Tada spustelėkite, norėdami matyti oro stebėjimo ir prognozės.

Norėdami pakeisti žemėlapį: spustelėkite ant žalios mygtukų su juodo kryžiaus žemyn,; žalią mygtuką su brūkšneliu, jei norite nutolinti; arba žalių rodyklių gretimoms žemėlapius.


METAR-TAF: